AirNav   Everest Fuels
 
 783 users online  

NH01 Bellamy River Seaplane Base
Dover, New Hampshire, USA

GOING TO DOVER?


FAA INFORMATION EFFECTIVE 05 DECEMBER 2019

Location

FAA Identifier: NH01
Lat/Long: 43-08-30.4500N 070-50-46.5400W
43-08.507500N 070-50.775667W
43.1417917,-70.8462611
(estimated)
Elevation: 0 ft. / 0 m (estimated)
Time zone: UTC -5 (UTC -4 during Daylight Saving Time)
Zip code: 03903

Seaplane Base Operations

Seaplane Base use: Private use. Permission required prior to landing
Activation date: 09/2016
Control tower: no
ARTCC: BOSTON CENTER
FSS: BANGOR FLIGHT SERVICE STATION
Attendance: 
Segmented circle: no

Seaplane Base Communications

WX ASOS at DAW (9 nm NW): 135.275 (603-332-7814)
WX AWOS-3PT at SFM (16 nm N): 120.025 (207-324-1958)

Nearby radio navigation aids

VOR radial/distance  VOR name  Freq  Var
PSMr006/3.5PEASE VOR/DME116.5016W
ENEr228/19.8KENNEBUNK VOR/DME117.1017W
LWMr039/26.4LAWRENCE VOR/DME112.5015W
MHTr069/28.2MANCHESTER VOR/DME114.4015W
CONr113/32.2CONCORD VOR/DME112.9015W

 
NDB name  Hdg/Dist  Freq  Var  ID
ROLLINS205/4.826016WESG . ... --.

Seaplane Base Services

Runway Information

Runway 18W/36W

Dimensions: 5280 x 500 ft. / 1609 x 152 m
Surface: water
RUNWAY 18W  RUNWAY 36W
Traffic pattern: leftleft

Seaplane Base Ownership and Management from official FAA records

Ownership: Privately-owned
Owner: KARL LEINSING
77 SPUR RD
DOVER, NH 03820
Phone 603-203-0365

Additional Remarks

FOR CD CTC BOSTON APCH AT 603-594-5551.

Instrument Procedures

There are no published instrument procedures at NH01.

Some nearby airports with instrument procedures:

3B4 - Littlebrook Air Park (3 nm E)
KPSM - Portsmouth International Airport at Pease (4 nm S)
KDAW - Skyhaven Airport (9 nm NW)
KSFM - Sanford Seacoast Regional Airport (16 nm N)
B19 - Biddeford Municipal Airport (25 nm NE)
 
Loc | Ops | Rwys | IFR | FBO | Links
Com | Nav | Svcs | Stats | Notes
Aerial photo
No photo
 
Airport distance calculator
Flying to Bellamy River Seaplane Base? Find the distance to fly.

From to NH01

Sunrise and sunset
Times for 12-Dec-2019
 Local
(UTC-5)
 Zulu
(UTC)
Morning civil twilight06:3511:35
Sunrise07:0712:07
Sunset16:0721:07
Evening civil twilight16:4021:40

Current date and time
Zulu (UTC)  13-Dec-2019 03:31:21
Local (UTC-5)  12-Dec-2019 22:31:21
 
METAR
KPSM 
5nm S 
130256Z 23004KT 10SM FEW140 BKN200 M04/M11 A3067 RMK AO2A SLP390 T10451111 55009
KDAW 
9nm N 
130251Z AUTO 00000KT 10SM SCT075 M06/M11 A3066 RMK AO2 SLP383 T10561111 55007
KSFM 
16nm N 
130256Z AUTO 00000KT 10SM SCT075 M09/M11 A3068 RMK AO2 SLP399 6//// T10891106 55006 FZRANO PNO $
TAF
KPSM 
5nm S 
121723Z 1218/1318 28007KT P6SM SKC FM131400 18005KT P6SM BKN040
NOTAMs
Click for the latest NOTAMs
NOTAMs are issued by the DoD/FAA and will open in a separate window not controlled by AirNav.

 

 
 

Would you like to see your business listed on this page?

 If your business provides an interesting product or service to pilots, flight crews, aircraft, or users of the Bellamy River Seaplane Base, you should consider listing it here.  To start the listing process, click on the button below
 
Add a business
 

Other Pages about Bellamy River Seaplane Base

Update a link
 
Copyright © AirNav, LLC. All rights reserved. Privacy Policy  Contact